Time;durP1;ratioP1;P1;durP2;ratioP2;P2;SDS_P1;SDS_P2;PMS_P1;PMS_P2;Temp;Humidity;BMP_temperature;BMP_pressure;BME280_temperature;BME280_humidity;BME280_pressure;Samples;Min_cycle;Max_cycle;Signal;HPM_P1;HPM_P2
2021/10/10 00:02:05;;;;;;;18.90;10.90;;;9.70;99.90;;;;;;5035240;28;20048;-86
2021/10/10 00:04:31;;;;;;;15.97;10.10;;;9.60;99.90;;;;;;5035163;28;20474;-86
2021/10/10 00:06:57;;;;;;;17.10;9.97;;;9.60;99.90;;;;;;5034099;28;20032;-86
2021/10/10 00:09:22;;;;;;;17.07;10.50;;;9.60;99.90;;;;;;5033371;28;20506;-86
2021/10/10 00:11:48;;;;;;;15.67;9.63;;;9.60;99.90;;;;;;5034999;28;20068;-86
2021/10/10 00:14:13;;;;;;;16.63;9.40;;;9.50;99.90;;;;;;5035203;28;20025;-86
2021/10/10 00:16:39;;;;;;;15.50;9.70;;;9.50;99.90;;;;;;5035587;28;20017;-86
2021/10/10 00:19:05;;;;;;;16.07;9.53;;;9.50;99.90;;;;;;5033065;28;20083;-86
2021/10/10 00:21:30;;;;;;;14.50;9.50;;;9.50;99.90;;;;;;5033535;28;20022;-86
2021/10/10 00:23:56;;;;;;;16.40;9.70;;;9.40;99.90;;;;;;5033536;28;20040;-86
2021/10/10 00:26:22;;;;;;;15.47;9.30;;;9.50;99.90;;;;;;5034850;28;20041;-86
2021/10/10 00:28:47;;;;;;;19.60;9.50;;;9.50;99.90;;;;;;5033450;28;20442;-86
2021/10/10 00:31:13;;;;;;;16.73;9.97;;;9.40;99.90;;;;;;5033141;28;20032;-86
2021/10/10 00:33:38;;;;;;;15.43;9.10;;;9.40;99.90;;;;;;5034617;28;20065;-86
2021/10/10 00:36:04;;;;;;;14.73;10.00;;;9.30;99.90;;;;;;5033333;28;20120;-86
2021/10/10 00:38:31;;;;;;;15.50;9.07;;;9.40;99.90;;;;;;5033181;28;20056;-86
2021/10/10 00:40:56;;;;;;;16.73;9.67;;;9.40;99.90;;;;;;5033747;28;20030;-86
2021/10/10 00:43:22;;;;;;;16.43;9.47;;;9.40;99.90;;;;;;5033164;28;20036;-86
2021/10/10 00:45:51;;;;;;;17.33;9.07;;;9.40;99.90;;;;;;5033376;28;20502;-86
2021/10/10 00:48:17;;;;;;;;;;;9.30;99.90;;;;;;5033641;28;20042;-86
2021/10/10 00:50:43;;;;;;;17.57;9.83;;;9.30;99.90;;;;;;5032615;28;19928;-86
2021/10/10 00:53:11;;;;;;;16.63;10.03;;;9.20;99.90;;;;;;5033081;28;20120;-86
2021/10/10 00:55:37;;;;;;;14.83;10.20;;;9.20;99.90;;;;;;5034759;28;20048;-86
2021/10/10 00:58:03;;;;;;;16.27;8.93;;;9.20;99.90;;;;;;5033113;28;20022;-86
2021/10/10 01:00:29;;;;;;;19.53;10.40;;;9.20;99.90;;;;;;5033596;28;20049;-86
2021/10/10 01:02:59;;;;;;;15.50;9.63;;;9.30;99.90;;;;;;5032857;28;20431;-86
2021/10/10 01:05:25;;;;;;;;;;;9.20;99.90;;;;;;5034799;28;20021;-86
2021/10/10 01:07:52;;;;;;;21.47;10.33;;;9.20;99.90;;;;;;5032855;28;19905;-86
2021/10/10 01:10:18;;;;;;;16.80;9.77;;;9.20;99.90;;;;;;5048634;28;20029;-86
2021/10/10 01:12:44;;;;;;;18.27;9.80;;;9.20;99.90;;;;;;5032586;28;20033;-86
2021/10/10 01:15:10;;;;;;;17.40;9.33;;;9.20;99.90;;;;;;5032848;28;20033;-86
2021/10/10 01:17:37;;;;;;;13.73;9.37;;;9.20;99.90;;;;;;5034053;28;20025;-86
2021/10/10 01:20:05;;;;;;;15.07;8.93;;;9.20;99.90;;;;;;5032103;28;20048;-86
2021/10/10 01:22:31;;;;;;;14.65;9.18;;;9.30;99.90;;;;;;5034163;28;20068;-86
2021/10/10 01:24:57;;;;;;;17.27;9.13;;;9.20;99.90;;;;;;5032679;28;20482;-86
2021/10/10 01:27:23;;;;;;;16.13;9.60;;;9.20;99.90;;;;;;5033889;28;20653;-86
2021/10/10 01:29:49;;;;;;;14.43;9.00;;;9.10;99.90;;;;;;5032010;28;20025;-86
2021/10/10 01:32:14;;;;;;;14.47;8.37;;;9.10;99.90;;;;;;5032403;28;20032;-86
2021/10/10 01:34:44;;;;;;;14.87;8.00;;;9.10;99.90;;;;;;5032211;28;20025;-86
2021/10/10 01:37:11;;;;;;;15.17;8.17;;;9.00;99.90;;;;;;5032666;28;20025;-86
2021/10/10 01:39:36;;;;;;;11.63;7.73;;;9.00;99.90;;;;;;5031884;28;20112;-86
2021/10/10 01:42:03;;;;;;;18.10;8.20;;;9.00;99.90;;;;;;5033477;28;20108;-86
2021/10/10 01:44:28;;;;;;;14.37;8.10;;;9.00;99.90;;;;;;5032043;28;20116;-86
2021/10/10 01:46:54;;;;;;;14.57;7.93;;;9.00;99.90;;;;;;5031953;28;20462;-86
2021/10/10 01:49:20;;;;;;;15.23;7.90;;;8.90;99.90;;;;;;5031565;28;20071;-86
2021/10/10 01:51:46;;;;;;;14.37;8.40;;;8.90;99.90;;;;;;5047663;28;20091;-86
2021/10/10 01:54:11;;;;;;;12.90;7.27;;;8.80;99.90;;;;;;5032064;28;20071;-86
2021/10/10 01:56:37;;;;;;;12.00;7.37;;;8.80;99.90;;;;;;5031901;28;20500;-86
2021/10/10 01:59:03;;;;;;;12.27;6.80;;;8.70;99.90;;;;;;5031172;28;20530;-86
2021/10/10 02:01:28;;;;;;;13.40;7.50;;;8.80;99.90;;;;;;5032914;28;20036;-86
2021/10/10 02:03:54;;;;;;;10.17;7.07;;;8.70;99.90;;;;;;5031894;28;20079;-86
2021/10/10 02:06:20;;;;;;;14.83;7.80;;;8.70;99.90;;;;;;5048331;28;20033;-86
2021/10/10 02:08:45;;;;;;;15.87;7.53;;;8.70;99.90;;;;;;5032870;28;20025;-86
2021/10/10 02:11:11;;;;;;;13.43;7.70;;;8.70;99.90;;;;;;5031136;28;20112;-86
2021/10/10 02:13:37;;;;;;;11.47;6.63;;;8.70;99.90;;;;;;5031575;28;20033;-86
2021/10/10 02:16:03;;;;;;;11.30;6.93;;;8.70;99.90;;;;;;5032789;28;20549;-86
2021/10/10 02:18:28;;;;;;;11.93;6.90;;;8.70;99.90;;;;;;5031467;28;20025;-86
2021/10/10 02:20:54;;;;;;;13.50;6.80;;;8.70;99.90;;;;;;5030808;28;20112;-86
2021/10/10 02:23:20;;;;;;;12.60;7.47;;;8.70;99.90;;;;;;5031345;28;20029;-86
2021/10/10 02:25:45;;;;;;;12.73;7.13;;;8.70;99.90;;;;;;5031554;28;20037;-86
2021/10/10 02:28:11;;;;;;;15.53;7.27;;;8.60;99.90;;;;;;5031260;28;20513;-86
2021/10/10 02:30:36;;;;;;;11.33;7.03;;;8.60;99.90;;;;;;5030705;28;20033;-86
2021/10/10 02:33:02;;;;;;;13.13;6.67;;;8.60;99.90;;;;;;5031960;28;20289;-86
2021/10/10 02:35:28;;;;;;;12.17;7.60;;;8.60;99.90;;;;;;5031419;28;20097;-86
2021/10/10 02:37:53;;;;;;;12.70;7.10;;;8.50;99.90;;;;;;5031155;28;20391;-86
2021/10/10 02:40:19;;;;;;;13.80;7.60;;;8.50;99.90;;;;;;5030768;28;20511;-86
2021/10/10 02:42:45;;;;;;;11.80;7.90;;;8.60;99.90;;;;;;5032546;28;20029;-86
2021/10/10 02:45:10;;;;;;;11.53;7.40;;;8.50;99.90;;;;;;5031130;28;20029;-86
2021/10/10 02:47:36;;;;;;;14.10;7.80;;;8.50;99.90;;;;;;5031201;28;20029;-86
2021/10/10 02:50:03;;;;;;;13.30;7.90;;;8.50;99.90;;;;;;5030787;28;20029;-86
2021/10/10 02:52:28;;;;;;;14.20;7.67;;;8.50;99.90;;;;;;5031256;28;20064;-86
2021/10/10 02:54:54;;;;;;;15.07;7.80;;;8.50;99.90;;;;;;5032306;28;20056;-86
2021/10/10 02:57:20;;;;;;;14.77;7.93;;;8.50;99.90;;;;;;5030934;28;20470;-86
2021/10/10 02:59:46;;;;;;;13.50;7.77;;;8.50;99.90;;;;;;5030339;28;20052;-86
2021/10/10 03:02:12;;;;;;;12.37;7.50;;;8.50;99.90;;;;;;5030770;28;20056;-86
2021/10/10 03:04:37;;;;;;;14.23;7.90;;;8.50;99.90;;;;;;5030855;28;20057;-86
2021/10/10 03:07:03;;;;;;;11.30;7.43;;;8.50;99.90;;;;;;5032138;28;20100;-86
2021/10/10 03:09:29;;;;;;;12.77;7.53;;;8.50;99.90;;;;;;5030247;28;20029;-86
2021/10/10 03:11:55;;;;;;;15.53;8.03;;;8.50;99.90;;;;;;5033181;28;20044;-86
2021/10/10 03:14:20;;;;;;;12.60;7.60;;;8.40;99.90;;;;;;5036826;28;20025;-86
2021/10/10 03:16:46;;;;;;;12.67;7.70;;;8.40;99.90;;;;;;5035400;28;20026;-86
2021/10/10 03:19:12;;;;;;;14.57;7.50;;;8.50;99.90;;;;;;5034476;28;20028;-86
2021/10/10 03:21:38;;;;;;;14.23;8.10;;;8.50;99.90;;;;;;5033096;28;20466;-86
2021/10/10 03:24:04;;;;;;;14.73;7.93;;;8.50;99.90;;;;;;5031193;28;20120;-86
2021/10/10 03:26:30;;;;;;;14.43;7.50;;;8.50;99.90;;;;;;5032307;28;20039;-86
2021/10/10 03:28:56;;;;;;;13.80;8.37;;;8.50;99.90;;;;;;5030326;28;20029;-86
2021/10/10 03:31:21;;;;;;;13.27;7.73;;;8.50;99.90;;;;;;5031453;28;20092;-86
2021/10/10 03:33:47;;;;;;;13.37;8.03;;;8.50;99.90;;;;;;5031802;28;20026;-86
2021/10/10 03:36:13;;;;;;;15.13;7.83;;;8.50;99.90;;;;;;5030673;28;20454;-86
2021/10/10 03:38:38;;;;;;;13.60;8.10;;;8.50;99.90;;;;;;5031940;28;20021;-86
2021/10/10 03:41:04;;;;;;;13.50;8.23;;;8.50;99.90;;;;;;5031387;28;20494;-86
2021/10/10 03:43:30;;;;;;;16.03;8.37;;;8.50;99.90;;;;;;5031617;28;20110;-87
2021/10/10 03:45:55;;;;;;;15.33;8.10;;;8.50;99.90;;;;;;5030592;28;20029;-86
2021/10/10 03:48:23;;;;;;;14.33;8.17;;;8.60;99.90;;;;;;5030544;28;20029;-86
2021/10/10 03:50:49;;;;;;;14.93;8.27;;;8.50;99.90;;;;;;5029983;28;20069;-86
2021/10/10 03:53:15;;;;;;;13.00;7.90;;;8.50;99.90;;;;;;5030347;28;20025;-86
2021/10/10 03:55:40;;;;;;;13.03;8.53;;;8.50;99.90;;;;;;5030237;28;20402;-86
2021/10/10 03:58:08;;;;;;;15.07;8.37;;;8.50;99.90;;;;;;5031725;28;20021;-86
2021/10/10 04:00:35;;;;;;;12.90;8.13;;;8.50;99.90;;;;;;5031163;28;20045;-86
2021/10/10 04:03:04;;;;;;;15.90;8.00;;;8.50;99.90;;;;;;5030267;28;20084;-86
2021/10/10 04:08:00;;;;;;;12.55;7.57;;;8.60;99.90;;;;;;5031718;28;19909;-86
2021/10/10 04:10:27;;;;;;;14.57;7.87;;;8.60;99.90;;;;;;5029762;28;20034;-86
2021/10/10 04:12:52;;;;;;;16.20;9.10;;;8.70;99.90;;;;;;5030283;28;20029;-86
2021/10/10 04:15:18;;;;;;;15.97;7.80;;;8.70;99.90;;;;;;5032620;28;20376;-86
2021/10/10 04:17:44;;;;;;;13.73;7.87;;;8.70;99.90;;;;;;5035046;28;20024;-86
2021/10/10 04:20:13;;;;;;;15.93;7.60;;;8.70;99.90;;;;;;5033239;28;20466;-86
2021/10/10 04:22:40;;;;;;;16.27;8.10;;;8.60;99.90;;;;;;5034949;28;20029;-86
2021/10/10 04:25:06;;;;;;;15.67;8.50;;;8.60;99.90;;;;;;5035237;28;20269;-86
2021/10/10 04:27:38;;;;;;;13.60;7.93;;;8.60;99.90;;;;;;5033643;28;20029;-86
2021/10/10 04:30:07;;;;;;;13.47;7.90;;;8.60;99.90;;;;;;5033213;28;20064;-86
2021/10/10 04:32:32;;;;;;;11.48;7.40;;;8.60;99.90;;;;;;5033400;28;20120;-86
2021/10/10 04:34:58;;;;;;;15.93;8.63;;;8.60;99.90;;;;;;5033600;28;20124;-86
2021/10/10 04:37:24;;;;;;;15.40;8.73;;;8.50;99.90;;;;;;5033438;28;20021;-86
2021/10/10 04:39:49;;;;;;;12.17;7.63;;;8.50;99.90;;;;;;5032829;28;20112;-86
2021/10/10 04:42:15;;;;;;;14.63;8.00;;;8.50;99.90;;;;;;5033273;28;20071;-86
2021/10/10 04:44:41;;;;;;;14.20;8.00;;;8.50;99.90;;;;;;5033721;28;20116;-86
2021/10/10 04:47:07;;;;;;;13.23;7.90;;;8.60;99.90;;;;;;5034828;28;20025;-86
2021/10/10 04:49:33;;;;;;;13.27;7.70;;;8.60;99.90;;;;;;5034106;28;20025;-86
2021/10/10 04:51:59;;;;;;;15.33;8.53;;;8.70;99.90;;;;;;5034452;28;20025;-86
2021/10/10 04:54:25;;;;;;;12.07;7.70;;;8.70;99.90;;;;;;5034352;28;20466;-86
2021/10/10 04:56:50;;;;;;;14.43;8.20;;;8.80;99.90;;;;;;5034611;28;20043;-87
2021/10/10 04:59:16;;;;;;;16.00;8.03;;;8.90;99.90;;;;;;5033700;28;20021;-86
2021/10/10 05:01:42;;;;;;;14.13;8.00;;;8.80;99.90;;;;;;5033223;28;20060;-86
2021/10/10 05:04:07;;;;;;;15.23;8.57;;;8.80;99.90;;;;;;5032943;28;20033;-86
2021/10/10 05:06:33;;;;;;;13.87;8.50;;;8.70;99.90;;;;;;5033066;28;20498;-85
2021/10/10 05:08:58;;;;;;;12.83;8.07;;;8.70;99.90;;;;;;5032336;28;20033;-86
2021/10/10 05:11:24;;;;;;;16.10;9.30;;;8.60;99.90;;;;;;5033008;28;20116;-86
2021/10/10 05:13:50;;;;;;;14.67;8.60;;;8.50;99.90;;;;;;5032839;28;20052;-86
2021/10/10 05:16:15;;;;;;;13.73;8.13;;;8.50;99.90;;;;;;5033029;28;20053;-86
2021/10/10 05:18:41;;;;;;;13.87;7.83;;;8.30;99.90;;;;;;5034079;28;20077;-86
2021/10/10 05:21:07;;;;;;;14.03;8.40;;;8.30;99.90;;;;;;5032073;28;20024;-86
2021/10/10 05:23:32;;;;;;;16.77;8.63;;;8.30;99.90;;;;;;5032510;28;20116;-86
2021/10/10 05:25:58;;;;;;;13.20;8.33;;;8.20;99.90;;;;;;5033810;28;20060;-86
2021/10/10 05:28:24;;;;;;;15.23;8.07;;;8.30;99.90;;;;;;5032531;28;20449;-86
2021/10/10 05:30:51;;;;;;;16.87;7.97;;;8.20;99.90;;;;;;5032112;28;20071;-86
2021/10/10 05:33:18;;;;;;;17.40;9.67;;;8.20;99.90;;;;;;5033597;28;20017;-86
2021/10/10 05:35:45;;;;;;;15.33;9.63;;;8.10;99.90;;;;;;5032625;28;20478;-86
2021/10/10 05:38:10;;;;;;;17.03;9.23;;;8.00;99.90;;;;;;5032257;28;20492;-86
2021/10/10 05:40:36;;;;;;;16.63;8.93;;;8.00;99.90;;;;;;5031546;28;20097;-86
2021/10/10 05:43:02;;;;;;;15.03;9.03;;;8.00;99.90;;;;;;5032070;28;20437;-86
2021/10/10 05:45:27;;;;;;;15.27;9.13;;;8.00;99.90;;;;;;5032554;28;20021;-86
2021/10/10 05:47:53;;;;;;;13.53;8.70;;;8.00;99.90;;;;;;5032489;28;20140;-85
2021/10/10 05:50:19;;;;;;;15.23;8.30;;;8.00;99.90;;;;;;5033104;28;20028;-86
2021/10/10 05:52:44;;;;;;;11.60;7.80;;;7.90;99.90;;;;;;5033298;28;20029;-86
2021/10/10 05:55:13;;;;;;;16.10;8.73;;;7.90;99.90;;;;;;5033319;28;20026;-86
2021/10/10 05:57:46;;;;;;;15.10;9.18;;;7.90;99.90;;;;;;5033346;28;20052;-86
2021/10/10 06:00:13;;;;;;;14.97;8.97;;;8.00;99.90;;;;;;5048155;28;20067;-86
2021/10/10 06:02:46;;;;;;;17.97;9.50;;;8.00;99.90;;;;;;5032051;28;20536;-86
2021/10/10 06:05:13;;;;;;;15.53;9.10;;;7.90;99.90;;;;;;5032278;28;20040;-86
2021/10/10 06:07:39;;;;;;;14.47;8.47;;;7.90;99.90;;;;;;5033279;28;20498;-86
2021/10/10 06:10:06;;;;;;;14.83;8.93;;;7.90;99.90;;;;;;5031456;28;20059;-86
2021/10/10 06:12:33;;;;;;;17.57;9.17;;;8.00;99.90;;;;;;5033288;28;20033;-86
2021/10/10 06:14:59;;;;;;;16.03;9.20;;;7.90;99.90;;;;;;5031707;28;20029;-86
2021/10/10 06:17:24;;;;;;;17.00;8.97;;;7.90;99.90;;;;;;5032379;28;20049;-86
2021/10/10 06:19:50;;;;;;;17.33;9.10;;;7.90;99.90;;;;;;5033039;28;20097;-86
2021/10/10 06:22:16;;;;;;;15.40;8.77;;;7.90;99.90;;;;;;5031953;28;20091;-86
2021/10/10 06:24:42;;;;;;;15.70;9.40;;;8.00;99.90;;;;;;5032118;28;20059;-86
2021/10/10 06:27:07;;;;;;;15.80;8.57;;;8.00;99.90;;;;;;5032515;28;20044;-86
2021/10/10 06:29:33;;;;;;;17.57;8.73;;;8.10;99.90;;;;;;5031986;28;20045;-86
2021/10/10 06:31:59;;;;;;;16.33;8.93;;;8.00;99.90;;;;;;5034502;28;20033;-86
2021/10/10 06:34:25;;;;;;;14.87;8.67;;;8.00;99.90;;;;;;5033614;28;20443;-86
2021/10/10 06:36:51;;;;;;;16.10;8.60;;;8.00;99.90;;;;;;5032070;28;20026;-86
2021/10/10 06:39:17;;;;;;;14.47;8.70;;;8.00;99.90;;;;;;5031635;28;20074;-86
2021/10/10 06:41:44;;;;;;;16.17;9.50;;;8.00;99.90;;;;;;5032286;28;20033;-86
2021/10/10 06:44:10;;;;;;;19.40;9.27;;;8.00;99.90;;;;;;5032327;28;20035;-86
2021/10/10 06:46:36;;;;;;;15.10;9.13;;;8.00;99.90;;;;;;5034502;28;20120;-86
2021/10/10 06:49:01;;;;;;;18.13;9.00;;;8.00;99.90;;;;;;5036306;28;20029;-86
2021/10/10 06:51:28;;;;;;;17.47;10.17;;;8.00;99.90;;;;;;5035127;28;20065;-86
2021/10/10 06:53:54;;;;;;;16.40;8.90;;;8.10;99.90;;;;;;5033826;28;20030;-86
2021/10/10 06:56:19;;;;;;;15.93;9.57;;;8.10;99.90;;;;;;5034038;28;20068;-86
2021/10/10 06:58:45;;;;;;;16.00;9.23;;;8.20;99.90;;;;;;5034217;28;20032;-86
2021/10/10 07:01:14;;;;;;;15.57;8.63;;;8.20;99.90;;;;;;5032887;28;20064;-86
2021/10/10 07:03:40;;;;;;;15.35;8.85;;;8.30;99.90;;;;;;5033859;28;20470;-86
2021/10/10 07:06:06;;;;;;;15.70;9.13;;;8.30;99.90;;;;;;5049256;28;20072;-86
2021/10/10 07:08:31;;;;;;;15.57;8.60;;;8.40;99.90;;;;;;5032069;28;20127;-86
2021/10/10 07:10:57;;;;;;;17.27;8.73;;;8.40;99.90;;;;;;5031960;28;20364;-86
2021/10/10 07:13:23;;;;;;;15.80;9.13;;;8.50;99.90;;;;;;5035369;28;20026;-86
2021/10/10 07:15:50;;;;;;;16.83;9.40;;;8.60;99.90;;;;;;5033026;28;20057;-86
2021/10/10 07:18:21;;;;;;;15.90;9.23;;;8.60;99.90;;;;;;5030781;28;20029;-86
2021/10/10 07:23:28;;;;;;;16.43;9.50;;;8.70;99.90;;;;;;5085988;23;20037;-85
2021/10/10 07:25:57;;;;;;;;;;;8.70;99.90;;;;;;5068333;28;20402;-86
2021/10/10 07:28:23;;;;;;;21.10;10.10;;;8.80;99.90;;;;;;5055757;28;19904;-86
2021/10/10 07:30:49;;;;;;;17.30;9.33;;;9.00;99.90;;;;;;5056238;28;20090;-87
2021/10/10 07:33:15;;;;;;;15.40;9.70;;;9.10;99.90;;;;;;5055671;28;20083;-85
2021/10/10 07:35:41;;;;;;;16.00;10.00;;;9.20;99.90;;;;;;5059223;28;20040;-86
2021/10/10 07:38:07;;;;;;;15.90;8.90;;;9.30;99.90;;;;;;5064326;28;20033;-86
2021/10/10 07:40:32;;;;;;;15.60;9.60;;;9.30;99.90;;;;;;5062484;28;20026;-86
2021/10/10 07:42:58;;;;;;;14.80;9.87;;;9.30;99.90;;;;;;5057835;28;20025;-85
2021/10/10 07:45:25;;;;;;;14.93;9.17;;;9.50;99.90;;;;;;5057402;28;20059;-86
2021/10/10 07:47:51;;;;;;;18.87;9.77;;;9.50;99.90;;;;;;5057948;28;20441;-87
2021/10/10 07:50:22;;;;;;;16.83;9.27;;;9.50;99.90;;;;;;5059009;28;20106;-86
2021/10/10 07:52:48;;;;;;;17.57;9.33;;;9.60;99.90;;;;;;5060698;28;20037;-86
2021/10/10 07:55:15;;;;;;;16.17;8.90;;;9.70;99.90;;;;;;5060868;28;20549;-87
2021/10/10 07:57:41;;;;;;;18.60;9.40;;;9.70;99.90;;;;;;5061728;28;20055;-85
2021/10/10 08:00:09;;;;;;;16.40;9.83;;;9.70;99.90;;;;;;5061599;28;20029;-87
2021/10/10 08:02:52;;;;;;;16.10;9.80;;;9.70;99.90;;;;;;5061994;28;20025;-87
2021/10/10 08:05:18;;;;;;;18.70;9.73;;;9.80;99.90;;;;;;5062737;28;20129;-86
2021/10/10 08:07:44;;;;;;;13.97;9.17;;;9.80;99.90;;;;;;5063580;28;20040;-87
2021/10/10 08:10:10;;;;;;;15.87;9.03;;;9.80;99.90;;;;;;5062891;28;20033;-86
2021/10/10 08:12:35;;;;;;;17.37;9.83;;;9.80;99.90;;;;;;5062278;28;20071;-86
2021/10/10 08:15:01;;;;;;;17.27;10.33;;;9.90;99.90;;;;;;5062850;28;20071;-86
2021/10/10 08:17:26;;;;;;;18.07;10.57;;;9.90;99.90;;;;;;5063104;28;20519;-86
2021/10/10 08:19:52;;;;;;;18.57;10.90;;;9.90;99.90;;;;;;5063253;28;20088;-88
2021/10/10 08:22:18;;;;;;;17.97;10.80;;;9.90;99.90;;;;;;5065140;28;20021;-86
2021/10/10 08:24:44;;;;;;;17.17;9.20;;;10.00;99.90;;;;;;5064855;28;20025;-86
2021/10/10 08:27:09;;;;;;;21.43;10.20;;;10.00;99.90;;;;;;5063449;28;20025;-87
2021/10/10 08:29:35;;;;;;;18.67;10.47;;;10.10;99.90;;;;;;5064154;28;20029;-86
2021/10/10 08:32:01;;;;;;;15.70;9.97;;;10.20;99.90;;;;;;5066279;28;20039;-87
2021/10/10 08:34:26;;;;;;;17.63;10.70;;;10.20;99.90;;;;;;5065568;28;20025;-87
2021/10/10 08:36:52;;;;;;;16.37;10.40;;;10.20;99.90;;;;;;5064917;28;20018;-87
2021/10/10 08:39:24;;;;;;;17.07;10.33;;;10.20;99.90;;;;;;5063129;28;20071;-88
2021/10/10 08:41:54;;;;;;;16.13;10.23;;;10.20;99.90;;;;;;5062641;28;20043;-86
2021/10/10 08:44:27;;;;;;;17.80;10.70;;;10.30;99.90;;;;;;5065175;28;20092;-87
2021/10/10 08:46:54;;;;;;;16.53;10.07;;;10.40;99.90;;;;;;5064979;28;20052;-87
2021/10/10 08:49:19;;;;;;;16.07;9.60;;;10.30;99.90;;;;;;5063811;28;20043;-86
2021/10/10 08:51:45;;;;;;;17.20;9.67;;;10.50;99.90;;;;;;5063559;28;20067;-88
2021/10/10 08:54:11;;;;;;;16.50;10.20;;;10.50;99.90;;;;;;5062975;28;20049;-87
2021/10/10 08:56:39;;;;;;;16.23;10.27;;;10.60;99.90;;;;;;5064205;28;20072;-87
2021/10/10 08:59:05;;;;;;;18.40;10.07;;;10.60;99.90;;;;;;5063450;28;20054;-87
2021/10/10 09:01:34;;;;;;;16.70;9.40;;;10.70;99.90;;;;;;5065858;28;20092;-87
2021/10/10 09:03:59;;;;;;;17.40;10.23;;;10.70;99.90;;;;;;5072261;28;20032;-87
2021/10/10 09:06:25;;;;;;;18.70;10.13;;;10.70;99.90;;;;;;5068355;28;20029;-87
2021/10/10 09:08:54;;;;;;;15.57;9.70;;;10.80;99.90;;;;;;5067152;28;20025;-87
2021/10/10 09:11:20;;;;;;;20.30;12.48;;;10.90;99.90;;;;;;5065546;28;20056;-87
2021/10/10 09:13:47;;;;;;;17.97;10.20;;;10.90;99.90;;;;;;5065785;28;20025;-88
2021/10/10 09:16:14;;;;;;;20.43;10.70;;;11.00;99.90;;;;;;5064197;28;20028;-87
2021/10/10 09:18:42;;;;;;;15.73;10.20;;;11.00;99.90;;;;;;5062984;28;20428;-87
2021/10/10 09:21:15;;;;;;;16.53;10.33;;;11.10;99.90;;;;;;5064219;28;20029;-87
2021/10/10 09:23:44;;;;;;;21.63;9.93;;;11.10;99.90;;;;;;5065019;28;20097;-87
2021/10/10 09:26:09;;;;;;;19.90;10.48;;;11.20;99.90;;;;;;5063402;28;20051;-88
2021/10/10 09:28:35;;;;;;;17.23;10.03;;;11.20;99.90;;;;;;5062242;28;20060;-87
2021/10/10 09:31:06;;;;;;;14.10;9.10;;;11.30;99.90;;;;;;5062381;28;20025;-87
2021/10/10 09:33:56;;;;;;;14.20;9.03;;;11.30;99.90;;;;;;5065164;28;20024;-88
2021/10/10 09:36:28;;;;;;;14.83;9.20;;;11.30;99.90;;;;;;5063326;28;20063;-87
2021/10/10 09:39:05;;;;;;;18.23;9.97;;;11.30;99.90;;;;;;5063784;28;20017;-85
2021/10/10 09:41:39;;;;;;;15.60;10.60;;;11.40;99.90;;;;;;5061653;28;20064;-86
2021/10/10 09:44:10;;;;;;;16.33;10.43;;;11.40;99.90;;;;;;5060373;28;20104;-86
2021/10/10 09:46:47;;;;;;;14.93;9.90;;;11.50;99.90;;;;;;5056264;28;20036;-86
2021/10/10 09:49:33;;;;;;;22.83;14.33;;;11.50;99.90;;;;;;5055805;28;20056;-87
2021/10/10 09:52:18;;;;;;;19.47;11.97;;;11.60;99.90;;;;;;5054682;28;20029;-86
2021/10/10 09:54:54;;;;;;;16.80;10.90;;;11.60;99.90;;;;;;5053700;28;20087;-86
2021/10/10 09:57:21;;;;;;;19.67;10.80;;;11.70;99.90;;;;;;5055688;28;20021;-87
2021/10/10 09:59:47;;;;;;;16.63;10.70;;;11.70;99.90;;;;;;5056587;28;20027;-86
2021/10/10 10:02:14;;;;;;;18.07;10.97;;;11.70;99.90;;;;;;5056981;28;20021;-86
2021/10/10 10:04:48;;;;;;;19.37;11.27;;;11.80;99.90;;;;;;5056394;28;20025;-86
2021/10/10 10:07:20;;;;;;;16.50;10.17;;;11.80;99.90;;;;;;5055216;28;20113;-86
2021/10/10 10:09:51;;;;;;;20.33;11.63;;;11.90;99.90;;;;;;5056884;28;20100;-87
2021/10/10 10:12:18;;;;;;;16.13;10.63;;;11.90;99.90;;;;;;5055995;28;20029;-86
2021/10/10 10:14:50;;;;;;;18.07;11.10;;;12.00;99.90;;;;;;5054898;28;20029;-86
2021/10/10 10:17:18;;;;;;;21.77;13.20;;;12.10;99.90;;;;;;5053691;28;20021;-85
2021/10/10 10:19:45;;;;;;;23.88;11.23;;;12.10;99.90;;;;;;5056747;28;20393;-86
2021/10/10 10:22:13;;;;;;;22.93;12.63;;;12.20;99.90;;;;;;5055626;28;20393;-87
2021/10/10 10:24:44;;;;;;;23.33;13.87;;;12.20;99.90;;;;;;5056359;28;20079;-86
2021/10/10 10:27:10;;;;;;;23.27;13.27;;;12.30;99.90;;;;;;5056336;28;20033;-87
2021/10/10 10:29:38;;;;;;;20.83;12.37;;;12.30;99.90;;;;;;5055864;28;20063;-86
2021/10/10 10:32:07;;;;;;;23.88;14.30;;;12.40;99.90;;;;;;5056440;28;20021;-86
2021/10/10 10:34:33;;;;;;;22.03;13.10;;;12.40;99.90;;;;;;5056158;28;20067;-86
2021/10/10 10:37:01;;;;;;;28.33;14.17;;;12.40;99.90;;;;;;5057596;28;20263;-86
2021/10/10 10:39:47;;;;;;;26.13;13.77;;;12.50;99.90;;;;;;5057210;28;20031;-87
2021/10/10 10:42:34;;;;;;;28.92;16.65;;;12.50;99.90;;;;;;5057122;28;20231;-86
2021/10/10 10:45:00;;;;;;;26.13;15.82;;;12.50;99.90;;;;;;5057142;28;20037;-86
2021/10/10 10:47:39;;;;;;;24.85;14.23;;;12.50;99.90;;;;;;5056991;28;20031;-88
2021/10/10 10:50:18;;;;;;;;;;;12.50;99.90;;;;;;5056782;28;20079;-86
2021/10/10 10:52:53;;;;;;;24.48;14.85;;;12.50;99.90;;;;;;5057239;28;20006;-87
2021/10/10 10:55:28;;;;;;;24.50;14.80;;;12.50;99.90;;;;;;5056360;28;20028;-86
2021/10/10 10:58:00;;;;;;;26.67;15.47;;;12.50;99.90;;;;;;5056483;28;20025;-87
2021/10/10 11:00:48;;;;;;;23.63;14.85;;;12.50;99.90;;;;;;5056065;28;20032;-86
2021/10/10 11:03:24;;;;;;;27.25;14.90;;;12.50;99.90;;;;;;5056563;28;20025;-86
2021/10/10 11:05:54;;;;;;;27.50;15.88;;;12.50;99.90;;;;;;5057927;28;20031;-87
2021/10/10 11:08:22;;;;;;;26.75;15.20;;;12.60;99.90;;;;;;5058212;28;20087;-87
2021/10/10 11:11:01;;;;;;;28.90;16.42;;;12.70;99.90;;;;;;5057929;28;20032;-87
2021/10/10 11:13:35;;;;;;;26.70;15.95;;;12.80;99.90;;;;;;5058857;28;20064;-87
2021/10/10 11:16:12;;;;;;;25.17;15.45;;;12.80;99.90;;;;;;5059197;28;20029;-87
2021/10/10 11:18:46;;;;;;;25.20;15.38;;;12.80;99.90;;;;;;5057600;28;20021;-86
2021/10/10 11:21:13;;;;;;;26.38;15.00;;;12.70;99.90;;;;;;5056546;28;20092;-87
2021/10/10 11:23:40;;;;;;;24.60;14.60;;;12.80;99.90;;;;;;5058284;28;20029;-86
2021/10/10 11:26:08;;;;;;;20.85;13.52;;;12.70;99.90;;;;;;5060922;28;20048;-87
2021/10/10 11:28:36;;;;;;;21.63;13.63;;;12.70;99.90;;;;;;5064697;28;20032;-86
2021/10/10 11:31:18;;;;;;;22.13;13.98;;;12.70;99.90;;;;;;5060785;28;20489;-87
2021/10/10 11:33:57;;;;;;;22.17;13.73;;;12.70;99.90;;;;;;5060299;28;20501;-87
2021/10/10 11:36:38;;;;;;;23.67;14.63;;;12.70;99.90;;;;;;5062089;28;20028;-87
2021/10/10 11:39:10;;;;;;;23.35;14.57;;;12.70;99.90;;;;;;5062595;28;20025;-87
2021/10/10 11:41:51;;;;;;;24.48;14.82;;;12.70;99.90;;;;;;5060851;28;20086;-87
2021/10/10 11:44:19;;;;;;;22.88;15.48;;;12.60;99.90;;;;;;5061296;28;20025;-87
2021/10/10 11:46:50;;;;;;;22.27;13.68;;;12.50;99.90;;;;;;5059165;28;20025;-86
2021/10/10 11:49:39;;;;;;;24.35;14.98;;;12.50;99.90;;;;;;5057741;28;20029;-87
2021/10/10 11:52:25;;;;;;;23.00;15.07;;;12.60;99.90;;;;;;5057095;28;20497;-87
2021/10/10 11:55:05;;;;;;;25.40;14.98;;;12.70;99.90;;;;;;5059862;28;20520;-87
2021/10/10 11:57:31;;;;;;;21.17;13.20;;;12.70;99.90;;;;;;5059057;28;20478;-87
2021/10/10 12:00:03;;;;;;;25.08;14.40;;;12.70;99.90;;;;;;5057348;28;20032;-86
2021/10/10 12:02:40;;;;;;;21.15;13.50;;;12.70;99.90;;;;;;5059123;28;20051;-87
2021/10/10 12:05:08;;;;;;;23.48;14.57;;;12.60;99.90;;;;;;5057696;28;20366;-87
2021/10/10 12:07:35;;;;;;;26.37;16.13;;;12.60;99.90;;;;;;5058573;28;20025;-86
2021/10/10 12:10:03;;;;;;;23.20;14.32;;;12.60;99.90;;;;;;5056638;28;20263;-87
2021/10/10 12:12:28;;;;;;;20.70;13.63;;;12.70;99.90;;;;;;5057693;28;20037;-87
2021/10/10 12:14:56;;;;;;;20.85;13.43;;;12.80;99.90;;;;;;5059545;28;20451;-87
2021/10/10 12:17:26;;;;;;;23.23;14.18;;;12.80;99.90;;;;;;5059142;28;20017;-87
2021/10/10 12:19:53;;;;;;;22.50;13.70;;;12.90;99.90;;;;;;5057117;28;20439;-87
2021/10/10 12:22:18;;;;;;;25.45;14.60;;;12.90;99.90;;;;;;5057695;28;20029;-87
2021/10/10 12:24:45;;;;;;;23.13;14.50;;;13.00;99.90;;;;;;5059630;28;20096;-87
2021/10/10 12:27:11;;;;;;;21.67;13.90;;;13.00;99.90;;;;;;5061274;28;20119;-86
2021/10/10 12:29:43;;;;;;;25.35;14.00;;;13.00;99.90;;;;;;5059892;28;20049;-86
2021/10/10 12:32:25;;;;;;;23.73;14.27;;;13.10;99.90;;;;;;5061830;28;20104;-87
2021/10/10 12:35:14;;;;;;;22.52;14.05;;;13.10;99.90;;;;;;5061727;28;20033;-87
2021/10/10 12:37:55;;;;;;;22.42;13.02;;;13.20;99.90;;;;;;5062007;28;20029;-87
2021/10/10 12:40:34;;;;;;;23.75;14.00;;;13.30;99.90;;;;;;5062946;28;20082;-87
2021/10/10 12:43:00;;;;;;;24.85;14.68;;;13.30;99.90;;;;;;5062259;28;20044;-87
2021/10/10 12:45:29;;;;;;;32.78;19.75;;;13.30;99.90;;;;;;5060300;28;20024;-87
2021/10/10 12:48:10;;;;;;;29.42;17.30;;;13.40;99.90;;;;;;5060255;28;20063;-86
2021/10/10 12:50:53;;;;;;;31.45;17.38;;;13.40;99.90;;;;;;5060712;28;20025;-86